sensor_id;sensor_type;location;lat;lon;timestamp;temperature;humidity
38241;DHT22;24037;49.536;8.500;2023-11-22T00:01:59;5.40;99.90
38241;DHT22;24037;49.536;8.500;2023-11-22T00:04:25;5.40;99.90
38241;DHT22;24037;49.536;8.500;2023-11-22T00:06:51;5.20;99.90
38241;DHT22;24037;49.536;8.500;2023-11-22T00:09:17;5.20;99.90
38241;DHT22;24037;49.536;8.500;2023-11-22T00:11:48;5.10;99.90
38241;DHT22;24037;49.536;8.500;2023-11-22T00:14:15;5.00;99.90
38241;DHT22;24037;49.536;8.500;2023-11-22T00:16:41;5.00;99.90
38241;DHT22;24037;49.536;8.500;2023-11-22T00:19:08;4.90;99.90
38241;DHT22;24037;49.536;8.500;2023-11-22T00:21:35;4.90;99.90
38241;DHT22;24037;49.536;8.500;2023-11-22T00:24:01;4.80;99.90
38241;DHT22;24037;49.536;8.500;2023-11-22T00:26:27;4.80;99.90
38241;DHT22;24037;49.536;8.500;2023-11-22T00:28:57;4.70;99.90
38241;DHT22;24037;49.536;8.500;2023-11-22T00:31:23;4.70;99.90
38241;DHT22;24037;49.536;8.500;2023-11-22T00:33:50;4.60;99.90
38241;DHT22;24037;49.536;8.500;2023-11-22T00:36:16;4.60;99.90
38241;DHT22;24037;49.536;8.500;2023-11-22T00:38:42;4.60;99.90
38241;DHT22;24037;49.536;8.500;2023-11-22T00:41:09;4.50;99.90
38241;DHT22;24037;49.536;8.500;2023-11-22T00:43:36;4.50;99.90
38241;DHT22;24037;49.536;8.500;2023-11-22T00:46:03;4.50;99.90
38241;DHT22;24037;49.536;8.500;2023-11-22T00:48:29;4.50;99.90
38241;DHT22;24037;49.536;8.500;2023-11-22T00:50:55;4.50;99.90
38241;DHT22;24037;49.536;8.500;2023-11-22T00:53:21;4.40;99.90
38241;DHT22;24037;49.536;8.500;2023-11-22T00:55:48;4.40;99.90
38241;DHT22;24037;49.536;8.500;2023-11-22T00:58:15;4.40;99.90
38241;DHT22;24037;49.536;8.500;2023-11-22T01:00:41;4.50;99.90
38241;DHT22;24037;49.536;8.500;2023-11-22T01:03:07;4.40;99.90
38241;DHT22;24037;49.536;8.500;2023-11-22T01:05:37;4.50;99.90
38241;DHT22;24037;49.536;8.500;2023-11-22T01:08:04;4.40;99.90
38241;DHT22;24037;49.536;8.500;2023-11-22T01:10:30;4.40;99.90
38241;DHT22;24037;49.536;8.500;2023-11-22T01:12:57;4.40;99.90
38241;DHT22;24037;49.536;8.500;2023-11-22T01:15:23;4.40;99.90
38241;DHT22;24037;49.536;8.500;2023-11-22T01:17:50;4.30;99.90
38241;DHT22;24037;49.536;8.500;2023-11-22T01:20:16;4.20;99.90
38241;DHT22;24037;49.536;8.500;2023-11-22T01:22:43;4.20;99.90
38241;DHT22;24037;49.536;8.500;2023-11-22T01:25:09;4.10;99.90
38241;DHT22;24037;49.536;8.500;2023-11-22T01:27:36;4.10;99.90
38241;DHT22;24037;49.536;8.500;2023-11-22T01:30:03;4.00;99.90
38241;DHT22;24037;49.536;8.500;2023-11-22T01:32:29;4.00;99.90
38241;DHT22;24037;49.536;8.500;2023-11-22T01:34:55;4.10;99.90
38241;DHT22;24037;49.536;8.500;2023-11-22T01:37:23;4.00;99.90
38241;DHT22;24037;49.536;8.500;2023-11-22T01:39:50;4.00;99.90
38241;DHT22;24037;49.536;8.500;2023-11-22T01:42:16;3.90;99.90
38241;DHT22;24037;49.536;8.500;2023-11-22T01:44:42;3.90;99.90
38241;DHT22;24037;49.536;8.500;2023-11-22T01:47:08;3.90;99.90
38241;DHT22;24037;49.536;8.500;2023-11-22T01:49:35;3.80;99.90
38241;DHT22;24037;49.536;8.500;2023-11-22T01:52:02;3.80;99.90
38241;DHT22;24037;49.536;8.500;2023-11-22T01:54:30;3.70;99.90
38241;DHT22;24037;49.536;8.500;2023-11-22T01:56:57;3.70;99.90
38241;DHT22;24037;49.536;8.500;2023-11-22T01:59:25;3.70;99.90
38241;DHT22;24037;49.536;8.500;2023-11-22T02:01:56;3.60;99.90
38241;DHT22;24037;49.536;8.500;2023-11-22T02:04:22;3.60;99.90
38241;DHT22;24037;49.536;8.500;2023-11-22T02:06:48;3.50;99.90
38241;DHT22;24037;49.536;8.500;2023-11-22T02:09:16;3.50;99.90
38241;DHT22;24037;49.536;8.500;2023-11-22T02:11:44;3.50;99.90
38241;DHT22;24037;49.536;8.500;2023-11-22T02:14:15;3.40;99.90
38241;DHT22;24037;49.536;8.500;2023-11-22T02:16:41;3.50;99.90
38241;DHT22;24037;49.536;8.500;2023-11-22T02:19:15;3.50;99.90
38241;DHT22;24037;49.536;8.500;2023-11-22T02:21:42;3.50;99.90
38241;DHT22;24037;49.536;8.500;2023-11-22T02:24:09;3.40;99.90
38241;DHT22;24037;49.536;8.500;2023-11-22T02:26:37;3.40;99.90
38241;DHT22;24037;49.536;8.500;2023-11-22T02:29:04;3.30;99.90
38241;DHT22;24037;49.536;8.500;2023-11-22T02:31:30;3.20;99.90
38241;DHT22;24037;49.536;8.500;2023-11-22T02:33:57;3.20;99.90
38241;DHT22;24037;49.536;8.500;2023-11-22T02:36:23;3.20;99.90
38241;DHT22;24037;49.536;8.500;2023-11-22T02:38:50;3.20;99.90
38241;DHT22;24037;49.536;8.500;2023-11-22T02:41:17;3.20;99.90
38241;DHT22;24037;49.536;8.500;2023-11-22T02:43:44;3.10;99.90
38241;DHT22;24037;49.536;8.500;2023-11-22T02:46:12;3.10;99.90
38241;DHT22;24037;49.536;8.500;2023-11-22T02:48:38;3.10;99.90
38241;DHT22;24037;49.536;8.500;2023-11-22T02:51:04;3.10;99.90
38241;DHT22;24037;49.536;8.500;2023-11-22T02:53:32;3.00;99.90
38241;DHT22;24037;49.536;8.500;2023-11-22T02:56:01;3.00;99.90
38241;DHT22;24037;49.536;8.500;2023-11-22T02:58:30;2.90;99.90
38241;DHT22;24037;49.536;8.500;2023-11-22T03:00:57;2.90;99.90
38241;DHT22;24037;49.536;8.500;2023-11-22T03:03:23;2.80;99.90
38241;DHT22;24037;49.536;8.500;2023-11-22T03:05:53;2.80;99.90
38241;DHT22;24037;49.536;8.500;2023-11-22T03:08:19;2.80;99.90
38241;DHT22;24037;49.536;8.500;2023-11-22T03:10:45;2.70;99.90
38241;DHT22;24037;49.536;8.500;2023-11-22T03:13:12;2.70;99.90
38241;DHT22;24037;49.536;8.500;2023-11-22T03:15:38;2.60;99.90
38241;DHT22;24037;49.536;8.500;2023-11-22T03:18:05;2.60;99.90
38241;DHT22;24037;49.536;8.500;2023-11-22T03:20:32;2.50;99.90
38241;DHT22;24037;49.536;8.500;2023-11-22T03:22:59;2.50;99.90
38241;DHT22;24037;49.536;8.500;2023-11-22T03:25:29;2.50;99.90
38241;DHT22;24037;49.536;8.500;2023-11-22T03:27:55;2.50;99.90
38241;DHT22;24037;49.536;8.500;2023-11-22T03:30:22;2.40;99.90
38241;DHT22;24037;49.536;8.500;2023-11-22T03:32:49;2.40;99.90
38241;DHT22;24037;49.536;8.500;2023-11-22T03:35:17;2.30;99.90
38241;DHT22;24037;49.536;8.500;2023-11-22T03:37:43;2.40;99.90
38241;DHT22;24037;49.536;8.500;2023-11-22T03:40:10;2.40;99.90
38241;DHT22;24037;49.536;8.500;2023-11-22T03:42:37;2.30;99.90
38241;DHT22;24037;49.536;8.500;2023-11-22T03:45:05;2.30;99.90
38241;DHT22;24037;49.536;8.500;2023-11-22T03:47:32;2.20;99.90
38241;DHT22;24037;49.536;8.500;2023-11-22T03:49:59;2.20;99.90
38241;DHT22;24037;49.536;8.500;2023-11-22T03:52:25;2.20;99.90
38241;DHT22;24037;49.536;8.500;2023-11-22T03:54:54;2.10;99.90
38241;DHT22;24037;49.536;8.500;2023-11-22T03:57:20;2.10;99.90
38241;DHT22;24037;49.536;8.500;2023-11-22T03:59:46;2.10;99.90
38241;DHT22;24037;49.536;8.500;2023-11-22T04:02:12;2.20;99.90
38241;DHT22;24037;49.536;8.500;2023-11-22T04:04:39;2.20;99.90
38241;DHT22;24037;49.536;8.500;2023-11-22T04:07:06;2.20;99.90
38241;DHT22;24037;49.536;8.500;2023-11-22T04:09:33;2.20;99.90
38241;DHT22;24037;49.536;8.500;2023-11-22T04:11:59;2.10;99.90
38241;DHT22;24037;49.536;8.500;2023-11-22T04:14:26;2.10;99.90
38241;DHT22;24037;49.536;8.500;2023-11-22T04:16:53;2.10;99.90
38241;DHT22;24037;49.536;8.500;2023-11-22T04:19:19;2.00;99.90
38241;DHT22;24037;49.536;8.500;2023-11-22T04:21:46;2.00;99.90
38241;DHT22;24037;49.536;8.500;2023-11-22T04:24:12;2.00;99.90
38241;DHT22;24037;49.536;8.500;2023-11-22T04:26:38;2.00;99.90
38241;DHT22;24037;49.536;8.500;2023-11-22T04:29:04;2.00;99.90
38241;DHT22;24037;49.536;8.500;2023-11-22T04:31:31;2.00;99.90
38241;DHT22;24037;49.536;8.500;2023-11-22T04:33:57;2.00;99.90
38241;DHT22;24037;49.536;8.500;2023-11-22T04:36:26;1.90;99.90
38241;DHT22;24037;49.536;8.500;2023-11-22T04:38:52;1.90;99.90
38241;DHT22;24037;49.536;8.500;2023-11-22T04:41:18;1.90;99.90
38241;DHT22;24037;49.536;8.500;2023-11-22T04:43:45;1.90;99.90
38241;DHT22;24037;49.536;8.500;2023-11-22T04:46:11;1.90;99.90
38241;DHT22;24037;49.536;8.500;2023-11-22T04:48:38;1.80;99.90
38241;DHT22;24037;49.536;8.500;2023-11-22T04:51:06;1.80;99.90
38241;DHT22;24037;49.536;8.500;2023-11-22T04:53:32;1.80;99.90
38241;DHT22;24037;49.536;8.500;2023-11-22T04:55:58;1.80;99.90
38241;DHT22;24037;49.536;8.500;2023-11-22T04:58:25;1.80;99.90
38241;DHT22;24037;49.536;8.500;2023-11-22T05:00:51;1.70;99.90
38241;DHT22;24037;49.536;8.500;2023-11-22T05:03:17;1.70;99.90
38241;DHT22;24037;49.536;8.500;2023-11-22T05:05:43;1.70;99.90
38241;DHT22;24037;49.536;8.500;2023-11-22T05:08:10;1.70;99.90
38241;DHT22;24037;49.536;8.500;2023-11-22T05:10:37;1.70;99.90
38241;DHT22;24037;49.536;8.500;2023-11-22T05:13:03;1.60;99.90
38241;DHT22;24037;49.536;8.500;2023-11-22T05:15:31;1.60;99.90
38241;DHT22;24037;49.536;8.500;2023-11-22T05:17:57;1.60;99.90
38241;DHT22;24037;49.536;8.500;2023-11-22T05:20:24;1.50;99.90
38241;DHT22;24037;49.536;8.500;2023-11-22T05:22:50;1.50;99.90
38241;DHT22;24037;49.536;8.500;2023-11-22T05:25:16;1.50;1.00
38241;DHT22;24037;49.536;8.500;2023-11-22T05:27:42;1.40;1.00
38241;DHT22;24037;49.536;8.500;2023-11-22T05:30:08;1.30;1.00
38241;DHT22;24037;49.536;8.500;2023-11-22T05:32:37;1.30;1.00
38241;DHT22;24037;49.536;8.500;2023-11-22T05:35:03;1.20;1.00
38241;DHT22;24037;49.536;8.500;2023-11-22T05:37:32;1.20;1.00
38241;DHT22;24037;49.536;8.500;2023-11-22T05:39:58;1.10;1.00
38241;DHT22;24037;49.536;8.500;2023-11-22T05:42:25;1.00;1.00
38241;DHT22;24037;49.536;8.500;2023-11-22T05:44:51;1.00;1.00
38241;DHT22;24037;49.536;8.500;2023-11-22T05:47:17;1.10;1.00
38241;DHT22;24037;49.536;8.500;2023-11-22T05:49:44;0.90;1.00
38241;DHT22;24037;49.536;8.500;2023-11-22T05:52:10;0.80;1.00
38241;DHT22;24037;49.536;8.500;2023-11-22T05:54:36;0.70;1.00
38241;DHT22;24037;49.536;8.500;2023-11-22T05:57:03;0.80;1.00
38241;DHT22;24037;49.536;8.500;2023-11-22T05:59:30;0.70;1.00
38241;DHT22;24037;49.536;8.500;2023-11-22T06:01:56;0.70;1.00
38241;DHT22;24037;49.536;8.500;2023-11-22T06:04:22;0.70;1.00
38241;DHT22;24037;49.536;8.500;2023-11-22T06:06:48;0.60;1.00
38241;DHT22;24037;49.536;8.500;2023-11-22T06:09:14;0.60;1.00
38241;DHT22;24037;49.536;8.500;2023-11-22T06:11:41;0.60;1.00
38241;DHT22;24037;49.536;8.500;2023-11-22T06:14:07;0.60;1.00
38241;DHT22;24037;49.536;8.500;2023-11-22T06:16:33;0.60;1.00
38241;DHT22;24037;49.536;8.500;2023-11-22T06:18:59;0.60;1.00
38241;DHT22;24037;49.536;8.500;2023-11-22T06:21:25;0.60;1.00
38241;DHT22;24037;49.536;8.500;2023-11-22T06:23:53;0.50;1.00
38241;DHT22;24037;49.536;8.500;2023-11-22T06:26:24;0.50;1.00
38241;DHT22;24037;49.536;8.500;2023-11-22T06:28:51;0.40;1.00
38241;DHT22;24037;49.536;8.500;2023-11-22T06:31:17;0.50;1.00
38241;DHT22;24037;49.536;8.500;2023-11-22T06:33:43;0.40;1.00
38241;DHT22;24037;49.536;8.500;2023-11-22T06:36:09;0.30;1.00
38241;DHT22;24037;49.536;8.500;2023-11-22T06:38:37;0.30;1.00
38241;DHT22;24037;49.536;8.500;2023-11-22T06:41:03;0.30;9.80
38241;DHT22;24037;49.536;8.500;2023-11-22T06:43:29;0.30;17.50
38241;DHT22;24037;49.536;8.500;2023-11-22T06:45:55;0.40;13.90
38241;DHT22;24037;49.536;8.500;2023-11-22T06:48:22;0.50;1.00
38241;DHT22;24037;49.536;8.500;2023-11-22T06:50:48;0.50;1.00
38241;DHT22;24037;49.536;8.500;2023-11-22T06:53:14;0.70;1.00
38241;DHT22;24037;49.536;8.500;2023-11-22T06:55:45;0.80;1.00
38241;DHT22;24037;49.536;8.500;2023-11-22T06:58:11;0.80;99.90
38241;DHT22;24037;49.536;8.500;2023-11-22T07:00:38;0.80;99.90
38241;DHT22;24037;49.536;8.500;2023-11-22T07:03:06;0.90;99.90
38241;DHT22;24037;49.536;8.500;2023-11-22T07:05:32;0.90;99.90
38241;DHT22;24037;49.536;8.500;2023-11-22T07:07:58;0.90;99.90
38241;DHT22;24037;49.536;8.500;2023-11-22T07:10:25;0.90;99.90
38241;DHT22;24037;49.536;8.500;2023-11-22T07:12:53;0.80;99.90
38241;DHT22;24037;49.536;8.500;2023-11-22T07:15:19;0.70;99.90
38241;DHT22;24037;49.536;8.500;2023-11-22T07:17:45;0.70;99.90
38241;DHT22;24037;49.536;8.500;2023-11-22T07:20:12;0.70;99.90
38241;DHT22;24037;49.536;8.500;2023-11-22T07:22:42;0.70;99.90
38241;DHT22;24037;49.536;8.500;2023-11-22T07:25:09;0.80;99.90
38241;DHT22;24037;49.536;8.500;2023-11-22T07:27:47;0.80;99.90
38241;DHT22;24037;49.536;8.500;2023-11-22T07:30:14;0.90;99.90
38241;DHT22;24037;49.536;8.500;2023-11-22T07:32:40;0.90;96.70
38241;DHT22;24037;49.536;8.500;2023-11-22T07:35:07;0.90;71.60
38241;DHT22;24037;49.536;8.500;2023-11-22T07:37:38;0.90;86.20
38241;DHT22;24037;49.536;8.500;2023-11-22T07:40:09;1.00;64.50
38241;DHT22;24037;49.536;8.500;2023-11-22T07:42:36;1.00;32.80
38241;DHT22;24037;49.536;8.500;2023-11-22T07:45:02;1.00;27.00
38241;DHT22;24037;49.536;8.500;2023-11-22T07:47:29;1.00;26.10
38241;DHT22;24037;49.536;8.500;2023-11-22T07:49:55;1.10;1.00
38241;DHT22;24037;49.536;8.500;2023-11-22T07:52:22;1.20;1.00
38241;DHT22;24037;49.536;8.500;2023-11-22T07:54:48;1.20;1.00
38241;DHT22;24037;49.536;8.500;2023-11-22T07:57:15;1.30;1.00
38241;DHT22;24037;49.536;8.500;2023-11-22T07:59:42;1.40;1.00
38241;DHT22;24037;49.536;8.500;2023-11-22T08:02:08;1.40;1.00
38241;DHT22;24037;49.536;8.500;2023-11-22T08:04:37;1.50;1.00
38241;DHT22;24037;49.536;8.500;2023-11-22T08:07:04;1.60;1.00
38241;DHT22;24037;49.536;8.500;2023-11-22T08:09:30;1.60;1.00
38241;DHT22;24037;49.536;8.500;2023-11-22T08:11:59;1.70;1.00
38241;DHT22;24037;49.536;8.500;2023-11-22T08:14:27;1.70;1.00
38241;DHT22;24037;49.536;8.500;2023-11-22T08:16:54;1.70;1.00
38241;DHT22;24037;49.536;8.500;2023-11-22T08:19:20;1.70;1.00
38241;DHT22;24037;49.536;8.500;2023-11-22T08:21:49;1.70;1.00
38241;DHT22;24037;49.536;8.500;2023-11-22T08:24:16;1.80;1.00
38241;DHT22;24037;49.536;8.500;2023-11-22T08:26:42;1.80;1.00
38241;DHT22;24037;49.536;8.500;2023-11-22T08:29:08;1.70;1.00
38241;DHT22;24037;49.536;8.500;2023-11-22T08:31:35;1.70;1.00
38241;DHT22;24037;49.536;8.500;2023-11-22T08:34:02;1.80;1.00
38241;DHT22;24037;49.536;8.500;2023-11-22T08:36:33;1.70;1.00
38241;DHT22;24037;49.536;8.500;2023-11-22T08:39:00;1.70;1.00
38241;DHT22;24037;49.536;8.500;2023-11-22T08:41:30;1.70;1.00
38241;DHT22;24037;49.536;8.500;2023-11-22T08:43:58;1.80;1.00
38241;DHT22;24037;49.536;8.500;2023-11-22T08:46:24;1.80;1.00
38241;DHT22;24037;49.536;8.500;2023-11-22T08:48:50;2.00;1.00
38241;DHT22;24037;49.536;8.500;2023-11-22T08:51:17;2.20;99.90
38241;DHT22;24037;49.536;8.500;2023-11-22T08:53:44;2.40;99.90
38241;DHT22;24037;49.536;8.500;2023-11-22T08:56:11;2.60;99.90
38241;DHT22;24037;49.536;8.500;2023-11-22T08:58:40;2.70;99.90
38241;DHT22;24037;49.536;8.500;2023-11-22T09:01:07;2.80;99.90
38241;DHT22;24037;49.536;8.500;2023-11-22T09:03:33;2.80;99.90
38241;DHT22;24037;49.536;8.500;2023-11-22T09:06:00;2.80;99.90
38241;DHT22;24037;49.536;8.500;2023-11-22T09:08:26;2.80;99.90
38241;DHT22;24037;49.536;8.500;2023-11-22T09:10:53;2.80;99.90
38241;DHT22;24037;49.536;8.500;2023-11-22T09:13:19;2.80;99.90
38241;DHT22;24037;49.536;8.500;2023-11-22T09:15:46;2.80;99.90
38241;DHT22;24037;49.536;8.500;2023-11-22T09:18:12;2.90;99.90
38241;DHT22;24037;49.536;8.500;2023-11-22T09:20:39;2.90;99.90
38241;DHT22;24037;49.536;8.500;2023-11-22T09:23:05;2.80;99.90
38241;DHT22;24037;49.536;8.500;2023-11-22T09:25:31;2.80;99.90
38241;DHT22;24037;49.536;8.500;2023-11-22T09:27:59;2.80;99.90
38241;DHT22;24037;49.536;8.500;2023-11-22T09:30:27;2.80;99.90
38241;DHT22;24037;49.536;8.500;2023-11-22T09:33:02;2.80;99.90
38241;DHT22;24037;49.536;8.500;2023-11-22T09:35:29;2.80;99.90
38241;DHT22;24037;49.536;8.500;2023-11-22T09:38:00;2.80;99.90
38241;DHT22;24037;49.536;8.500;2023-11-22T09:40:27;2.70;99.90
38241;DHT22;24037;49.536;8.500;2023-11-22T09:43:00;2.70;99.90
38241;DHT22;24037;49.536;8.500;2023-11-22T09:45:29;2.90;99.90
38241;DHT22;24037;49.536;8.500;2023-11-22T09:47:56;2.90;99.90
38241;DHT22;24037;49.536;8.500;2023-11-22T09:50:30;3.00;99.90
38241;DHT22;24037;49.536;8.500;2023-11-22T09:53:00;3.10;99.90
38241;DHT22;24037;49.536;8.500;2023-11-22T09:55:29;3.20;99.90
38241;DHT22;24037;49.536;8.500;2023-11-22T09:57:58;3.30;71.30
38241;DHT22;24037;49.536;8.500;2023-11-22T10:00:28;3.30;63.90
38241;DHT22;24037;49.536;8.500;2023-11-22T10:02:59;3.30;81.00
38241;DHT22;24037;49.536;8.500;2023-11-22T10:05:25;3.20;64.20
38241;DHT22;24037;49.536;8.500;2023-11-22T10:07:54;3.30;36.30
38241;DHT22;24037;49.536;8.500;2023-11-22T10:10:21;3.20;46.80
38241;DHT22;24037;49.536;8.500;2023-11-22T10:12:55;3.30;70.00
38241;DHT22;24037;49.536;8.500;2023-11-22T10:15:22;3.50;51.40
38241;DHT22;24037;49.536;8.500;2023-11-22T10:17:56;3.60;47.70
38241;DHT22;24037;49.536;8.500;2023-11-22T10:20:24;3.60;13.00
38241;DHT22;24037;49.536;8.500;2023-11-22T10:22:52;3.60;16.10
38241;DHT22;24037;49.536;8.500;2023-11-22T10:25:18;3.50;17.80
38241;DHT22;24037;49.536;8.500;2023-11-22T10:27:45;3.40;30.10
38241;DHT22;24037;49.536;8.500;2023-11-22T10:30:18;3.50;45.70
38241;DHT22;24037;49.536;8.500;2023-11-22T10:32:45;3.60;31.70
38241;DHT22;24037;49.536;8.500;2023-11-22T10:35:12;3.70;24.50
38241;DHT22;24037;49.536;8.500;2023-11-22T10:37:42;3.80;26.60
38241;DHT22;24037;49.536;8.500;2023-11-22T10:40:12;3.90;22.40
38241;DHT22;24037;49.536;8.500;2023-11-22T10:42:42;4.00;2.70
38241;DHT22;24037;49.536;8.500;2023-11-22T10:45:09;4.10;2.90
38241;DHT22;24037;49.536;8.500;2023-11-22T10:47:37;4.10;1.00
38241;DHT22;24037;49.536;8.500;2023-11-22T10:50:08;3.90;4.30
38241;DHT22;24037;49.536;8.500;2023-11-22T10:52:35;4.00;22.50
38241;DHT22;24037;49.536;8.500;2023-11-22T10:55:05;3.90;9.70
38241;DHT22;24037;49.536;8.500;2023-11-22T10:57:46;3.80;16.00
38241;DHT22;24037;49.536;8.500;2023-11-22T11:00:15;3.70;26.30
38241;DHT22;24037;49.536;8.500;2023-11-22T11:02:45;3.80;24.60
38241;DHT22;24037;49.536;8.500;2023-11-22T11:05:17;3.70;33.80
38241;DHT22;24037;49.536;8.500;2023-11-22T11:07:49;3.90;28.00
38241;DHT22;24037;49.536;8.500;2023-11-22T11:10:20;4.00;11.80
38241;DHT22;24037;49.536;8.500;2023-11-22T11:12:48;4.00;25.90
38241;DHT22;24037;49.536;8.500;2023-11-22T11:15:15;4.00;8.10
38241;DHT22;24037;49.536;8.500;2023-11-22T11:17:44;3.90;11.40
38241;DHT22;24037;49.536;8.500;2023-11-22T11:20:13;3.90;25.70
38241;DHT22;24037;49.536;8.500;2023-11-22T11:22:41;4.00;11.90
38241;DHT22;24037;49.536;8.500;2023-11-22T11:25:07;4.00;1.00
38241;DHT22;24037;49.536;8.500;2023-11-22T11:27:34;4.00;17.70
38241;DHT22;24037;49.536;8.500;2023-11-22T11:33:12;3.90;9.90
38241;DHT22;24037;49.536;8.500;2023-11-22T11:35:47;3.90;22.40
38241;DHT22;24037;49.536;8.500;2023-11-22T11:38:14;4.00;7.20
38241;DHT22;24037;49.536;8.500;2023-11-22T11:40:42;3.90;16.30
38241;DHT22;24037;49.536;8.500;2023-11-22T11:43:12;3.80;17.60
38241;DHT22;24037;49.536;8.500;2023-11-22T11:45:41;3.90;14.40
38241;DHT22;24037;49.536;8.500;2023-11-22T11:48:15;4.00;22.00
38241;DHT22;24037;49.536;8.500;2023-11-22T11:50:42;4.10;16.70
38241;DHT22;24037;49.536;8.500;2023-11-22T11:53:12;4.00;24.80
38241;DHT22;24037;49.536;8.500;2023-11-22T11:55:38;4.00;49.30
38241;DHT22;24037;49.536;8.500;2023-11-22T11:58:05;4.00;41.40
38241;DHT22;24037;49.536;8.500;2023-11-22T12:00:38;3.90;34.80
38241;DHT22;24037;49.536;8.500;2023-11-22T12:03:07;3.70;53.50
38241;DHT22;24037;49.536;8.500;2023-11-22T12:05:40;3.60;43.90
38241;DHT22;24037;49.536;8.500;2023-11-22T12:08:06;3.70;60.70
38241;DHT22;24037;49.536;8.500;2023-11-22T12:10:33;3.80;66.00
38241;DHT22;24037;49.536;8.500;2023-11-22T12:12:59;3.80;29.70
38241;DHT22;24037;49.536;8.500;2023-11-22T12:15:26;3.80;8.80
38241;DHT22;24037;49.536;8.500;2023-11-22T12:17:52;3.70;5.80
38241;DHT22;24037;49.536;8.500;2023-11-22T12:20:22;3.70;25.30
38241;DHT22;24037;49.536;8.500;2023-11-22T12:22:52;3.80;22.30
38241;DHT22;24037;49.536;8.500;2023-11-22T12:25:19;3.90;21.70
38241;DHT22;24037;49.536;8.500;2023-11-22T12:27:47;3.90;14.40
38241;DHT22;24037;49.536;8.500;2023-11-22T12:30:32;3.90;9.90
38241;DHT22;24037;49.536;8.500;2023-11-22T12:33:05;3.90;9.40
38241;DHT22;24037;49.536;8.500;2023-11-22T12:35:32;4.00;1.00
38241;DHT22;24037;49.536;8.500;2023-11-22T12:38:05;4.00;1.00
38241;DHT22;24037;49.536;8.500;2023-11-22T12:40:34;4.00;3.70
38241;DHT22;24037;49.536;8.500;2023-11-22T12:43:02;4.10;11.20
38241;DHT22;24037;49.536;8.500;2023-11-22T12:45:30;4.10;1.00
38241;DHT22;24037;49.536;8.500;2023-11-22T12:47:58;4.10;1.00
38241;DHT22;24037;49.536;8.500;2023-11-22T12:50:38;4.10;1.00
38241;DHT22;24037;49.536;8.500;2023-11-22T12:53:12;4.10;1.00
38241;DHT22;24037;49.536;8.500;2023-11-22T12:55:43;4.00;1.00
38241;DHT22;24037;49.536;8.500;2023-11-22T12:58:10;4.00;1.00
38241;DHT22;24037;49.536;8.500;2023-11-22T13:00:36;4.00;1.00
38241;DHT22;24037;49.536;8.500;2023-11-22T13:03:06;4.20;1.00
38241;DHT22;24037;49.536;8.500;2023-11-22T13:05:33;4.10;1.00
38241;DHT22;24037;49.536;8.500;2023-11-22T13:07:59;4.10;1.00
38241;DHT22;24037;49.536;8.500;2023-11-22T13:10:25;4.00;1.00
38241;DHT22;24037;49.536;8.500;2023-11-22T13:12:53;3.90;1.00
38241;DHT22;24037;49.536;8.500;2023-11-22T13:15:20;4.10;1.00
38241;DHT22;24037;49.536;8.500;2023-11-22T13:17:50;4.10;1.00
38241;DHT22;24037;49.536;8.500;2023-11-22T13:20:25;4.10;1.00
38241;DHT22;24037;49.536;8.500;2023-11-22T13:22:55;4.10;1.00
38241;DHT22;24037;49.536;8.500;2023-11-22T13:25:22;4.10;1.00
38241;DHT22;24037;49.536;8.500;2023-11-22T13:27:50;4.10;1.00
38241;DHT22;24037;49.536;8.500;2023-11-22T13:30:19;4.00;1.00
38241;DHT22;24037;49.536;8.500;2023-11-22T13:32:50;3.90;1.00
38241;DHT22;24037;49.536;8.500;2023-11-22T13:35:17;4.00;1.00
38241;DHT22;24037;49.536;8.500;2023-11-22T13:37:47;4.00;1.00
38241;DHT22;24037;49.536;8.500;2023-11-22T13:40:18;4.00;1.00
38241;DHT22;24037;49.536;8.500;2023-11-22T13:42:51;4.10;1.00
38241;DHT22;24037;49.536;8.500;2023-11-22T13:45:19;4.10;1.00
38241;DHT22;24037;49.536;8.500;2023-11-22T13:47:51;4.00;1.00
38241;DHT22;24037;49.536;8.500;2023-11-22T13:50:21;3.80;1.00
38241;DHT22;24037;49.536;8.500;2023-11-22T13:52:53;3.80;1.00
38241;DHT22;24037;49.536;8.500;2023-11-22T13:55:20;3.90;15.30
38241;DHT22;24037;49.536;8.500;2023-11-22T13:57:54;4.00;12.70
38241;DHT22;24037;49.536;8.500;2023-11-22T14:00:23;4.00;1.00
38241;DHT22;24037;49.536;8.500;2023-11-22T14:02:52;4.00;1.00
38241;DHT22;24037;49.536;8.500;2023-11-22T14:05:19;4.10;1.00
38241;DHT22;24037;49.536;8.500;2023-11-22T14:07:45;4.10;1.00
38241;DHT22;24037;49.536;8.500;2023-11-22T14:10:11;4.10;1.00
38241;DHT22;24037;49.536;8.500;2023-11-22T14:12:43;4.00;1.00
38241;DHT22;24037;49.536;8.500;2023-11-22T14:15:11;3.90;16.80
38241;DHT22;24037;49.536;8.500;2023-11-22T14:17:37;4.00;16.60
38241;DHT22;24037;49.536;8.500;2023-11-22T14:22:35;4.10;1.00
38241;DHT22;24037;49.536;8.500;2023-11-22T14:25:02;4.00;1.00
38241;DHT22;24037;49.536;8.500;2023-11-22T14:27:28;3.80;1.00
38241;DHT22;24037;49.536;8.500;2023-11-22T14:29:57;3.80;14.10
38241;DHT22;24037;49.536;8.500;2023-11-22T14:32:23;3.80;43.50
38241;DHT22;24037;49.536;8.500;2023-11-22T14:34:49;3.80;29.20
38241;DHT22;24037;49.536;8.500;2023-11-22T14:37:15;3.80;21.40
38241;DHT22;24037;49.536;8.500;2023-11-22T14:39:41;3.70;16.80
38241;DHT22;24037;49.536;8.500;2023-11-22T14:42:08;3.80;17.90
38241;DHT22;24037;49.536;8.500;2023-11-22T14:44:34;3.70;32.90
38241;DHT22;24037;49.536;8.500;2023-11-22T14:47:02;3.80;35.10
38241;DHT22;24037;49.536;8.500;2023-11-22T14:49:32;3.80;24.40
38241;DHT22;24037;49.536;8.500;2023-11-22T14:51:59;3.70;15.80
38241;DHT22;24037;49.536;8.500;2023-11-22T14:54:26;3.70;5.20
38241;DHT22;24037;49.536;8.500;2023-11-22T14:56:52;3.60;14.70
38241;DHT22;24037;49.536;8.500;2023-11-22T14:59:20;3.60;14.70
38241;DHT22;24037;49.536;8.500;2023-11-22T15:01:47;3.60;21.60
38241;DHT22;24037;49.536;8.500;2023-11-22T15:04:14;3.60;30.20
38241;DHT22;24037;49.536;8.500;2023-11-22T15:06:41;3.60;25.70
38241;DHT22;24037;49.536;8.500;2023-11-22T15:09:10;3.60;50.50
38241;DHT22;24037;49.536;8.500;2023-11-22T15:11:43;3.50;39.90
38241;DHT22;24037;49.536;8.500;2023-11-22T15:14:10;3.50;46.10
38241;DHT22;24037;49.536;8.500;2023-11-22T15:16:37;3.40;64.30
38241;DHT22;24037;49.536;8.500;2023-11-22T15:19:04;3.30;81.30
38241;DHT22;24037;49.536;8.500;2023-11-22T15:21:33;3.30;96.00
38241;DHT22;24037;49.536;8.500;2023-11-22T15:23:59;3.20;99.90
38241;DHT22;24037;49.536;8.500;2023-11-22T15:26:26;3.10;99.90
38241;DHT22;24037;49.536;8.500;2023-11-22T15:28:52;3.10;99.90
38241;DHT22;24037;49.536;8.500;2023-11-22T15:31:19;3.00;99.90
38241;DHT22;24037;49.536;8.500;2023-11-22T15:33:45;2.90;99.90
38241;DHT22;24037;49.536;8.500;2023-11-22T15:36:12;2.80;99.90
38241;DHT22;24037;49.536;8.500;2023-11-22T15:38:38;2.70;99.90
38241;DHT22;24037;49.536;8.500;2023-11-22T15:41:04;2.70;99.90
38241;DHT22;24037;49.536;8.500;2023-11-22T15:43:30;2.70;99.90
38241;DHT22;24037;49.536;8.500;2023-11-22T15:45:56;2.60;99.90
38241;DHT22;24037;49.536;8.500;2023-11-22T15:48:24;2.60;99.90
38241;DHT22;24037;49.536;8.500;2023-11-22T15:50:51;2.50;99.90
38241;DHT22;24037;49.536;8.500;2023-11-22T15:53:18;2.50;99.90
38241;DHT22;24037;49.536;8.500;2023-11-22T15:55:44;2.50;99.90
38241;DHT22;24037;49.536;8.500;2023-11-22T15:58:10;2.40;99.90